• Join FlightAware (Why Join?)
  • Login
  • US Flag 
Gobble Gobble! 
11:06PM EST


 

Airport Tracker/Info


-or-


 

Live Flight TrackerFlight Track Log ✈ N662US ✈ 07-Jun-2013 ✈ RPLL / MNL - RJAA / NRT

Flight Track Log - Related Links

Times and Time Zones

All times are in EDT time to prevent confusion due to time zone crossing. See the N662US flight status page for this flight to view local times or setup timezone preferences in your user account.

Time Position Orientation Groundspeed Altitude Reporting Facility
EDT Latitude Longitude Course Direction KTS MPH feet Rate Location/Type
08:02PM 14.5992 121.0869 36° Northeast  Level Estimated
08:03PM 14.6897 121.1543 36° Northeast  Level Estimated
08:04PM 14.7802 121.2217 36° Northeast  Level Estimated
08:05PM 14.8707 121.2892 36° Northeast  Level Estimated
08:06PM 14.9612 121.3567 36° Northeast  Level Estimated
08:07PM 15.0516 121.4243 36° Northeast  Level Estimated
08:08PM 15.1420 121.4920 36° Northeast  Level Estimated
08:09PM 15.2324 121.5597 36° Northeast  Level Estimated
08:10PM 15.3228 121.6274 36° Northeast  Level Estimated
08:11PM 15.4131 121.6953 36° Northeast  Level Estimated
08:12PM 15.5035 121.7632 36° Northeast  Level Estimated
08:13PM 15.5938 121.8311 36° Northeast  Level Estimated
08:14PM 15.6841 121.8991 36° Northeast  Level Estimated
08:15PM 15.7744 121.9672 36° Northeast  Level Estimated
08:16PM 15.8646 122.0353 36° Northeast  Level Estimated
08:17PM 15.9549 122.1035 36° Northeast  Level Estimated
08:18PM 16.0451 122.1718 36° Northeast  Level Estimated
08:19PM 16.1353 122.2401 36° Northeast  Level Estimated
08:20PM 16.2255 122.3084 36° Northeast  Level Estimated
08:21PM 16.3156 122.3769 36° Northeast  Level Estimated
08:22PM 16.4058 122.4454 36° Northeast  Level Estimated
08:23PM 16.4959 122.5139 36° Northeast  Level Estimated
08:24PM 16.5859 122.5826 36° Northeast  Level Estimated
08:25PM 16.6760 122.6513 36° Northeast  Level Estimated
08:26PM 16.7660 122.7200 36° Northeast  Level Estimated
08:27PM 16.8561 122.7888 36° Northeast  Level Estimated
08:28PM 16.9461 122.8577 36° Northeast  Level Estimated
08:29PM 17.0360 122.9267 36° Northeast  Level Estimated
08:30PM 17.1260 122.9957 36° Northeast  Level Estimated
08:31PM 17.2159 123.0648 36° Northeast  Level Estimated
08:32PM 17.3058 123.1339 36° Northeast  Level Estimated
08:33PM 17.3957 123.2032 36° Northeast  Level Estimated
08:34PM 17.4855 123.2725 36° Northeast  Level Estimated
08:35PM 17.5753 123.3418 36° Northeast  Level Estimated
08:36PM 17.6651 123.4112 36° Northeast  Level Estimated
08:37PM 17.7549 123.4807 36° Northeast  Level Estimated
08:38PM 17.8447 123.5503 36° Northeast  Level Estimated
08:39PM 17.9344 123.6199 36° Northeast  Level Estimated
08:40PM 18.0241 123.6896 36° Northeast  Level Estimated
08:41PM 18.1138 123.7594 36° Northeast  Level Estimated
08:42PM 18.2034 123.8293 37° Northeast  Level Estimated
08:43PM 18.3028 123.9068 37° Northeast  Level Estimated
08:44PM 18.4021 123.9843 37° Northeast  Level Estimated
08:45PM 18.5013 124.0620 37° Northeast  Level Estimated
08:46PM 18.6005 124.1397 37° Northeast  Level Estimated
08:47PM 18.6997 124.2176 37° Northeast  Level Estimated
08:48PM 18.7989 124.2955 37° Northeast  Level Estimated
08:49PM 18.8980 124.3735 37° Northeast  Level Estimated
08:50PM 18.9971 124.4517 37° Northeast  Level Estimated
08:51PM 19.0961 124.5299 37° Northeast  Level Estimated
08:52PM 19.1952 124.6082 37° Northeast  Level Estimated
08:53PM 19.2942 124.6866 37° Northeast  Level Estimated
08:54PM 19.3931 124.7651 37° Northeast  Level Estimated
08:55PM 19.4921 124.8436 37° Northeast  Level Estimated
08:56PM 19.5910 124.9223 37° Northeast  Level Estimated
08:57PM 19.6898 125.0011 37° Northeast  Level Estimated
08:58PM 19.7886 125.0800 37° Northeast  Level Estimated
08:59PM 19.8874 125.1590 37° Northeast  Level Estimated
09:00PM 19.9862 125.2381 37° Northeast  Level Estimated
09:01PM 20.0849 125.3172 37° Northeast  Level Estimated
09:02PM 20.1836 125.3965 37° Northeast  Level Estimated
09:03PM 20.2822 125.4759 37° Northeast  Level Estimated
09:04PM 20.3809 125.5554 37° Northeast  Level Estimated
09:05PM 20.4794 125.6349 37° Northeast  Level Estimated
09:06PM 20.5780 125.7146 37° Northeast  Level Estimated
09:07PM 20.6765 125.7944 37° Northeast  Level Estimated
09:08PM 20.7750 125.8743 37° Northeast  Level Estimated
09:09PM 20.8734 125.9543 37° Northeast  Level Estimated
09:10PM 20.9718 126.0344 37° Northeast  Level Estimated
09:11PM 21.0701 126.1146 37° Northeast  Level Estimated
09:12PM 21.1685 126.1949 37° Northeast  Level Estimated
09:13PM 21.2667 126.2753 37° Northeast  Level Estimated
09:14PM 21.3650 126.3558 37° Northeast  Level Estimated
09:15PM 21.4632 126.4364 37° Northeast  Level Estimated
09:16PM 21.5613 126.5172 37° Northeast  Level Estimated
09:17PM 21.6595 126.5980 37° Northeast  Level Estimated
09:18PM 21.7576 126.6790 37° Northeast  Level Estimated
09:19PM 21.8556 126.7601 37° Northeast  Level Estimated
09:20PM 21.9536 126.8412 38° Northeast  Level Estimated
09:21PM 22.0516 126.9225 38° Northeast  Level Estimated
09:22PM 22.1495 127.0039 38° Northeast  Level Estimated
09:23PM 22.2474 127.0854 38° Northeast  Level Estimated
09:24PM 22.3453 127.1671 38° Northeast  Level Estimated
09:25PM 22.4431 127.2488 38° Northeast  Level Estimated
09:26PM 22.5408 127.3307 38° Northeast  Level Estimated
09:27PM 22.6386 127.4127 38° Northeast  Level Estimated
09:28PM 22.7362 127.4948 38° Northeast  Level Estimated
09:29PM 22.8339 127.5770 38° Northeast  Level Estimated
09:30PM 22.9315 127.6593 38° Northeast  Level Estimated
09:31PM 23.0290 127.7418 38° Northeast  Level Estimated
09:32PM 23.1265 127.8243 38° Northeast  Level Estimated
09:33PM 23.2240 127.9070 38° Northeast  Level Estimated
09:34PM 23.3214 127.9898 38° Northeast  Level Estimated
09:35PM 23.4188 128.0728 38° Northeast  Level Estimated
09:36PM 23.5162 128.1558 38° Northeast  Level Estimated
09:37PM 23.6134 128.2390 38° Northeast  Level Estimated
09:38PM 23.7107 128.3223 38° Northeast  Level Estimated
09:39PM 23.8079 128.4057 38° Northeast  Level Estimated
09:40PM 23.9051 128.4892 38° Northeast  Level Estimated
09:41PM 24.0022 128.5729 38° Northeast  Level Estimated
09:42PM 24.0993 128.6567 38° Northeast  Level Estimated
09:43PM 24.1963 128.7406 38° Northeast  Level Estimated
09:44PM 24.2933 128.8247 38° Northeast  Level Estimated
09:45PM 24.3902 128.9089 38° Northeast  Level Estimated
09:46PM 24.4871 128.9932 38° Northeast  Level Estimated
09:47PM 24.5839 129.0776 38° Northeast  Level Estimated
09:48PM 24.6807 129.1622 38° Northeast  Level Estimated
09:49PM 24.7774 129.2469 38° Northeast  Level Estimated
09:50PM 24.8741 129.3317 39° Northeast  Level Estimated
09:51PM 24.9708 129.4167 39° Northeast  Level Estimated
09:52PM 25.0674 129.5018 39° Northeast  Level Estimated
09:53PM 25.1639 129.5871 39° Northeast  Level Estimated
09:54PM 25.2604 129.6724 39° Northeast  Level Estimated
09:55PM 25.3569 129.7579 39° Northeast  Level Estimated
09:56PM 25.4533 129.8436 39° Northeast  Level Estimated
09:57PM 25.5496 129.9294 39° Northeast  Level Estimated
09:58PM 25.6459 130.0153 39° Northeast  Level Estimated
09:59PM 25.7422 130.1013 39° Northeast  Level Estimated
10:00PM 25.8384 130.1875 39° Northeast  Level Estimated
10:01PM 25.9345 130.2739 39° Northeast  Level Estimated
10:02PM 26.0306 130.3604 39° Northeast  Level Estimated
10:03PM 26.1267 130.4470 39° Northeast  Level Estimated
10:04PM 26.2227 130.5337 39° Northeast  Level Estimated
10:05PM 26.3186 130.6206 39° Northeast  Level Estimated
10:06PM 26.4145 130.7077 39° Northeast  Level Estimated
10:07PM 26.5104 130.7949 39° Northeast  Level Estimated
10:08PM 26.6061 130.8822 39° Northeast  Level Estimated
10:09PM 26.7019 130.9697 39° Northeast  Level Estimated
10:10PM 26.7976 131.0573 39° Northeast  Level Estimated
10:11PM 26.8932 131.1451 39° Northeast  Level Estimated
10:12PM 26.9888 131.2331 39° Northeast  Level Estimated
10:13PM 27.0843 131.3211 39° Northeast  Level Estimated
10:14PM 27.1797 131.4094 39° Northeast  Level Estimated
10:15PM 27.2752 131.4978 39° Northeast  Level Estimated
10:16PM 27.3705 131.5863 39° Northeast  Level Estimated
10:17PM 27.4658 131.6750 40° Northeast  Level Estimated
10:18PM 27.5610 131.7638 40° Northeast  Level Estimated
10:19PM 27.6562 131.8528 40° Northeast  Level Estimated
10:20PM 27.7513 131.9420 40° Northeast  Level Estimated
10:21PM 27.8464 132.0313 40° Northeast  Level Estimated
10:22PM 27.9414 132.1207 40° Northeast  Level Estimated
10:23PM 28.0364 132.2103 40° Northeast  Level Estimated
10:24PM 28.1313 132.3001 40° Northeast  Level Estimated
10:25PM 28.2261 132.3901 40° Northeast  Level Estimated
10:26PM 28.3209 132.4802 40° Northeast  Level Estimated
10:27PM 28.4156 132.5704 40° Northeast  Level Estimated
10:28PM 28.5102 132.6608 40° Northeast  Level Estimated
10:29PM 28.6057 132.7522 40° Northeast  Level Estimated
10:30PM 28.7011 132.8438 40° Northeast  Level Estimated
10:31PM 28.7964 132.9356 40° Northeast  Level Estimated
10:32PM 28.8917 133.0275 40° Northeast  Level Estimated
10:33PM 28.9869 133.1196 40° Northeast  Level Estimated
10:34PM 29.0821 133.2118 40° Northeast  Level Estimated
10:35PM 29.1771 133.3042 40° Northeast  Level Estimated
10:36PM 29.2722 133.3968 40° Northeast  Level Estimated
10:37PM 29.3671 133.4896 40° Northeast  Level Estimated
10:38PM 29.4620 133.5825 40° Northeast  Level Estimated
10:39PM 29.5568 133.6756 40° Northeast  Level Estimated
10:40PM 29.6516 133.7689 41° Northeast  Level Estimated
10:41PM 29.7463 133.8624 41° Northeast  Level Estimated
10:42PM 29.8409 133.9560 41° Northeast  Level Estimated
10:43PM 29.9355 134.0498 41° Northeast  Level Estimated
10:44PM 30.0300 134.1438 41° Northeast  Level Estimated
10:45PM 30.1244 134.2379 41° Northeast  Level Estimated
10:46PM 30.2188 134.3323 41° Northeast  Level Estimated
10:47PM 30.3131 134.4268 41° Northeast  Level Estimated
10:48PM 30.4073 134.5215 41° Northeast  Level Estimated
10:49PM 30.5015 134.6164 41° Northeast  Level Estimated
10:50PM 30.5956 134.7115 41° Northeast  Level Estimated
10:51PM 30.6896 134.8068 41° Northeast  Level Estimated
10:52PM 30.7835 134.9022 41° Northeast  Level Estimated
10:53PM 30.8774 134.9979 41° Northeast  Level Estimated
10:54PM 30.9712 135.0937 41° Northeast  Level Estimated
10:55PM 31.0650 135.1897 41° Northeast  Level Estimated
10:56PM 31.1586 135.2859 41° Northeast  Level Estimated
10:57PM 31.2522 135.3823 41° Northeast  Level Estimated
10:58PM 31.3458 135.4789 41° Northeast  Level Estimated
10:59PM 31.4392 135.5757 41° Northeast  Level Estimated
11:00PM 31.5326 135.6726 42° Northeast  Level Estimated
11:01PM 31.6259 135.7698 42° Northeast  Level Estimated
11:02PM 31.7191 135.8671 42° Northeast  Level Estimated
11:03PM 31.8123 135.9647 42° Northeast  Level Estimated
11:04PM 31.9054 136.0624 42° Northeast  Level Estimated
11:05PM 31.9984 136.1604 42° Northeast  Level Estimated
11:06PM 32.0913 136.2585 42° Northeast  Level Estimated
11:07PM 32.1842 136.3569 42° Northeast  Level Estimated
11:08PM 32.2770 136.4554 42° Northeast  Level Estimated
11:09PM 32.3697 136.5542 42° Northeast  Level Estimated
11:10PM 32.4623 136.6531 42° Northeast  Level Estimated
11:11PM 32.5548 136.7523 42° Northeast  Level Estimated
11:12PM 32.6473 136.8517 42° Northeast  Level Estimated
11:13PM 32.7397 136.9512 42° Northeast  Level Estimated
11:14PM 32.8320 137.0510 42° Northeast  Level Estimated
11:15PM 32.9243 137.1510 42° Northeast  Level Estimated
11:16PM 33.0164 137.2512 42° Northeast  Level Estimated
11:17PM 33.1085 137.3516 42° Northeast  Level Estimated
11:18PM 33.2005 137.4522 42° Northeast  Level Estimated
11:19PM 33.2924 137.5530 43° Northeast  Level Estimated
11:20PM 33.3842 137.6540 43° Northeast  Level Estimated
11:21PM 33.4760 137.7553 43° Northeast  Level Estimated
11:22PM 33.5676 137.8567 43° Northeast  Level Estimated
11:23PM 33.6592 137.9584 43° Northeast  Level Estimated
11:24PM 33.7507 138.0603 43° Northeast  Level Estimated
11:25PM 33.8422 138.1624 43° Northeast  Level Estimated
11:26PM 33.9335 138.2648 43° Northeast  Level Estimated
11:27PM 34.0247 138.3673 43° Northeast  Level Estimated
11:28PM 34.1159 138.4701 43° Northeast  Level Estimated
11:29PM 34.2070 138.5731 43° Northeast  Level Estimated
11:30PM 34.2980 138.6763 43° Northeast  Level Estimated
11:31PM 34.3889 138.7797 43° Northeast  Level Estimated
11:32PM 34.4797 138.8834 43° Northeast  Level Estimated
11:33PM 34.5696 138.9863 43° Northeast  Level Estimated
11:34PM 34.6594 139.0895 43° Northeast  Level Estimated
11:35PM 34.7492 139.1929 43° Northeast  Level Estimated
11:36PM 34.8388 139.2965 43° Northeast  Level Estimated
11:37PM 34.9284 139.4004 44° Northeast  Level Estimated
11:38PM 35.0178 139.5044 44° Northeast  Level Estimated
11:39PM 35.1072 139.6087 44° Northeast  Level Estimated
11:40PM 35.1965 139.7133 44° Northeast  Level Estimated
11:41PM 35.2857 139.8180 44° Northeast  Level Estimated
11:42PM 35.3749 139.9230 44° Northeast  Level Estimated
11:43PM 35.4639 140.0282 44° Northeast  Level Estimated
11:44PM 35.5528 140.1337 44° Northeast  Level Estimated
11:45PM 35.6416 140.2394 44° Northeast  Level Estimated
11:46PM 35.7304 140.3453 44° Northeast  Level Estimated
11:47PM 35.7647 140.3864 44° Northeast  Level Estimated
11:48PM 35.7647 140.3864 338° Northwest  Level Estimated
11:49PM 35.7647 140.3864 338° Northwest  Level Estimated
11:50PM 35.7647 140.3864 338° Northwest  Level Estimated
11:51PM 35.7647 140.3864 338° Northwest  Level Estimated
11:52PM 35.7647 140.3864 338° Northwest  Level Estimated
11:53PM 35.7647 140.3864 338° Northwest  Level Estimated
11:54PM 35.7647 140.3864 338° Northwest  Level Estimated
11:55PM 35.7647 140.3864 338° Northwest  Level Estimated
11:56PM 35.7647 140.3864 338° Northwest  Level Estimated
11:57PM 35.7647 140.3864 338° Northwest  Level Estimated
11:58PM 35.7647 140.3864 338° Northwest  Level Estimated
11:59PM 35.7647 140.3864 338° Northwest  Level Estimated
12:00AM 35.7647 140.3864 338° Northwest  Level Estimated
12:01AM 35.7647 140.3864 338° Northwest  Level Estimated
12:02AM 35.7647 140.3864 338° Northwest  Level Estimated
12:03AM 35.7647 140.3864 338° Northwest  Level Estimated
12:04AM 35.7647 140.3864 338° Northwest  Level Estimated
12:05AM 35.7647 140.3864 338° Northwest  Level Estimated
12:06AM 35.7647 140.3864 338° Northwest  Level Estimated
12:07AM 35.7647 140.3864 338° Northwest  Level Estimated
12:08AM 35.7647 140.3864 338° Northwest  Level Estimated
12:09AM 35.7647 140.3864 338° Northwest  Level Estimated
12:10AM 35.7647 140.3864 338° Northwest  Level Estimated
12:11AM 35.7647 140.3864 338° Northwest  Level Estimated
12:12AM 35.7647 140.3864 338° Northwest  Level Estimated
12:13AM 35.7647 140.3864 338° Northwest  Level Estimated
12:14AM 35.7647 140.3864 338° Northwest  Level Estimated
12:15AM 35.7647 140.3864 338° Northwest  Level Estimated
12:16AM 35.7647 140.3864 338° Northwest  Level Estimated
12:17AM 35.7647 140.3864 338° Northwest  Level Estimated